Terminal Aerodrome Forecast
Issued by NWS Tuscon, AZ

Home | Current Version | Previous Version | Text Only | Print | Product List | Glossary On
Versions: 1 2 3 4 5 6 7 8 9 10 11 12 13
190
FTUS45 KTWC 200520
TAFDUG
TAF
KDUG 200520Z 2006/2106 21007KT P6SM BKN070 OVC120
     FM200800 19008KT P6SM SCT050 BKN080
     FM201400 21011KT P6SM VCSH BKN050 OVC080
     FM201800 23015G25KT P6SM -RA OVC050
     FM210200 22022G32KT P6SM -RA OVC030=

USA.gov is the U.S. government's official web portal to all federal, state and local government web resources and services.